Garden Spring, Nevada Weather observations

Data are for 10 minute period ending at time listed.
 Day   Time    Ave.   Ave.  Ave.  Vector   Max.   Stn.    Total    Solar   Ave.  
  of    of     Air    Rel.  Wind   Wind    Wind   Baro.  Precip.   Rad.    Soil  
Year   Day     Temp.  Hum.  Speed  Dir.    Gust   Pres.                    Temp. 
2017   (PST)    F      %     mph   deg.    mph     mb.     in.     W/m2     F    
--------------------------------------------------------------------------------- 
  23   10:00   39.2    60    8.1   223     16.5   840.9    0.05     442    35.1  
  23   11:00   41.4    52    5.3   222     13.0   841.3    0.04     501    35.0  
  23   12:00   40.8    53    7.1   195     14.7   840.6    0.00     454    34.9  
  23   13:00   38.8    66    7.0   208     19.1   840.0    0.00     245    34.9  
  23   14:00   40.5    57    2.9   218     10.0   839.6    0.00     207    35.0  
  23   15:00   38.0    65    5.7   200     11.1   839.6    0.00     162    35.0  
  23   16:00   37.8    71    3.6   300     13.3   839.7    0.00     141    35.0  
  23   17:00   33.6    83    5.7   323     13.9   839.9    0.00      18    34.9  
  23   18:00   31.9    86    6.4   292     13.6   839.7    0.00       0    35.0  
  23   19:00   32.0    79    2.8   283      6.2   839.6    0.00       0    35.0  
  23   20:00   30.8    84    3.5   284      6.6   839.8    0.00       0    35.0  
  23   21:00   31.3    83    2.1   181      7.9   839.8    0.00       0    35.1  
  23   22:00   29.1    92    1.2   271      3.0   840.1    0.00       0    34.9  
  23   23:00   28.5    93    2.9   287      5.7   840.3    0.00       0    35.1  
  24    0:00   29.6    89    4.8   288      8.5   840.3    0.00       0    35.1  
  24    1:00   27.7    91    2.8   257      5.6   840.5    0.00       0    34.9  
  24    2:00   26.2    87    4.4   308     13.6   840.7    0.00       0    34.9  
  24    3:00   27.6    74    6.1   298     11.4   841.0    0.00       0    35.0  
  24    4:00   26.0    74    6.0   293     10.6   841.4    0.00       0    34.9  
  24    5:00   25.9    62    5.1   295     10.3   842.0    0.00       0    34.9  
  24    6:00   27.8    52    5.5   326     14.9   842.5    0.00       0    35.0  
  24    7:00   27.4    52    3.2     8     11.1   843.2    0.00       2    34.9  
  24    8:00   27.7    52    4.0   172      9.5   843.9    0.00     100    34.9  
  24    9:00   34.0    40    3.0   105     10.8   844.7    0.02     288    35.3  

Return to Garden Spring, Nevada graphs page.


Western Regional Climate Center,wrcc@dri.edu